createdAt,value
2023-01-11T00:01:08.199Z,18.00
2023-01-11T00:03:36.778Z,24.00
2023-01-11T00:06:05.141Z,22.00
2023-01-11T00:08:33.151Z,23.00
2023-01-11T00:11:02.467Z,35.00
2023-01-11T00:13:32.030Z,26.00
2023-01-11T00:16:06.433Z,26.00
2023-01-11T00:18:35.866Z,21.00
2023-01-11T00:21:05.820Z,27.00
2023-01-11T00:23:35.297Z,27.00
2023-01-11T00:26:08.858Z,21.00
2023-01-11T00:28:36.850Z,20.50
2023-01-11T00:31:05.400Z,22.00
2023-01-11T00:33:33.616Z,24.00
2023-01-11T00:36:01.665Z,22.00
2023-01-11T00:38:46.976Z,24.00
2023-01-11T00:41:34.929Z,19.00
2023-01-11T00:44:22.883Z,19.00
2023-01-11T00:47:10.434Z,23.00
2023-01-11T00:49:38.651Z,23.00
2023-01-11T00:52:09.405Z,17.00
2023-01-11T00:54:39.406Z,20.00
2023-01-11T00:57:08.927Z,20.00
2023-01-11T00:59:39.658Z,24.00
2023-01-11T01:02:09.785Z,18.00
2023-01-11T01:04:38.842Z,17.00
2023-01-11T01:07:08.399Z,18.00
2023-01-11T01:09:36.370Z,14.00
2023-01-11T01:12:04.639Z,20.00
2023-01-11T01:14:33.892Z,24.50
2023-01-11T01:17:08.010Z,25.00
2023-01-11T01:19:37.966Z,21.00
2023-01-11T01:22:05.919Z,23.00
2023-01-11T01:24:34.287Z,21.00
2023-01-11T01:27:02.133Z,18.00
2023-01-11T01:29:30.121Z,18.00
2023-01-11T01:31:58.070Z,20.50
2023-01-11T01:34:26.380Z,16.00
2023-01-11T01:36:54.293Z,19.00
2023-01-11T01:39:22.336Z,22.00
2023-01-11T01:41:50.337Z,20.00
2023-01-11T01:44:54.658Z,22.50
2023-01-11T01:47:31.285Z,22.00
2023-01-11T01:50:04.801Z,21.00
2023-01-11T01:52:34.849Z,22.00
2023-01-11T01:55:10.544Z,24.00
2023-01-11T01:57:43.016Z,24.00
2023-01-11T02:00:12.469Z,26.00
2023-01-11T02:02:44.102Z,26.00
2023-01-11T02:05:15.160Z,20.50
2023-01-11T02:07:45.053Z,22.00
2023-01-11T02:10:18.779Z,29.00
2023-01-11T02:12:57.380Z,27.00
2023-01-11T02:15:25.936Z,26.50
2023-01-11T02:17:54.165Z,24.00
2023-01-11T02:20:35.232Z,29.50
2023-01-11T02:23:25.308Z,34.50
2023-01-11T02:26:02.719Z,27.50
2023-01-11T02:28:49.059Z,26.00
2023-01-11T02:31:35.433Z,32.00
2023-01-11T02:34:20.731Z,39.50
2023-01-11T02:37:16.422Z,30.00
2023-01-11T02:40:20.625Z,36.00
2023-01-11T02:43:16.962Z,26.00
2023-01-11T02:46:00.915Z,30.50
2023-01-11T02:48:44.046Z,26.33
2023-01-11T02:51:20.458Z,35.00
2023-01-11T02:53:59.008Z,28.00
2023-01-11T02:56:34.183Z,32.00
2023-01-11T02:59:02.890Z,37.00
2023-01-11T03:01:30.918Z,32.00
2023-01-11T03:03:58.987Z,33.00
2023-01-11T03:06:34.979Z,29.00
2023-01-11T03:09:22.971Z,25.00
2023-01-11T03:12:20.892Z,25.00
2023-01-11T03:15:16.938Z,32.00
2023-01-11T03:18:01.507Z,24.00
2023-01-11T03:20:38.815Z,35.00
2023-01-11T03:23:14.861Z,31.50
2023-01-11T03:25:48.927Z,32.00
2023-01-11T03:28:37.847Z,27.00
2023-01-11T03:31:38.834Z,35.00
2023-01-11T03:34:16.584Z,29.00
2023-01-11T03:37:16.958Z,29.00
2023-01-11T03:40:37.892Z,22.00
2023-01-11T03:43:13.607Z,23.50
2023-01-11T03:45:57.413Z,34.00
2023-01-11T03:48:55.903Z,25.00
2023-01-11T03:51:30.151Z,33.00
2023-01-11T03:54:01.282Z,35.00
2023-01-11T03:56:49.494Z,36.00
2023-01-11T03:59:18.156Z,33.00
2023-01-11T04:01:46.304Z,26.00
2023-01-11T04:04:14.347Z,36.50
2023-01-11T04:06:42.279Z,29.00
2023-01-11T04:09:10.282Z,30.00
2023-01-11T04:11:38.295Z,35.50
2023-01-11T04:14:06.257Z,31.00
2023-01-11T04:16:34.196Z,36.50
2023-01-11T04:19:03.164Z,25.00
2023-01-11T04:21:31.235Z,32.00
2023-01-11T04:23:59.219Z,32.50
2023-01-11T04:26:27.123Z,30.00
2023-01-11T04:28:55.145Z,30.00
2023-01-11T04:31:23.182Z,29.50
2023-01-11T04:33:51.235Z,22.50
2023-01-11T04:36:19.256Z,22.00
2023-01-11T04:38:47.341Z,25.00
2023-01-11T04:41:34.351Z,32.00
2023-01-11T04:44:02.215Z,33.00
2023-01-11T04:46:30.031Z,28.00
2023-01-11T04:48:58.055Z,32.00
2023-01-11T04:51:26.068Z,34.50
2023-01-11T04:53:54.233Z,31.00
2023-01-11T04:56:22.209Z,31.50
2023-01-11T04:58:50.227Z,33.00
2023-01-11T05:01:19.310Z,44.00
2023-01-11T05:03:47.627Z,39.00
2023-01-11T05:06:17.285Z,32.00
2023-01-11T05:11:14.924Z,19.00
2023-01-11T05:13:43.360Z,24.00
2023-01-11T05:16:12.577Z,28.00
2023-01-11T05:18:52.008Z,29.50
2023-01-11T05:21:22.643Z,34.00
2023-01-11T05:23:51.033Z,29.00
2023-01-11T05:26:23.302Z,27.00
2023-01-11T05:28:52.552Z,30.00
2023-01-11T05:31:20.642Z,34.00
2023-01-11T05:33:48.602Z,43.00
2023-01-11T05:36:20.874Z,34.33
2023-01-11T05:38:51.432Z,30.00
2023-01-11T05:41:22.171Z,39.50
2023-01-11T05:44:10.353Z,38.00
2023-01-11T05:46:40.124Z,44.00
2023-01-11T05:49:09.149Z,42.00
2023-01-11T05:51:40.977Z,34.50
2023-01-11T05:54:14.882Z,31.67
2023-01-11T05:56:43.112Z,44.50
2023-01-11T05:59:13.333Z,50.50
2023-01-11T06:01:41.415Z,42.00
2023-01-11T06:04:09.547Z,43.00
2023-01-11T06:06:37.597Z,46.00
2023-01-11T06:09:06.035Z,37.00
2023-01-11T06:11:35.539Z,48.00
2023-01-11T06:14:07.114Z,45.50
2023-01-11T06:16:35.222Z,47.00
2023-01-11T06:19:04.098Z,52.00
2023-01-11T06:21:32.101Z,56.00
2023-01-11T06:24:01.244Z,58.00
2023-01-11T06:26:29.688Z,52.50
2023-01-11T06:28:57.801Z,52.00
2023-01-11T06:31:25.929Z,47.00
2023-01-11T06:33:53.958Z,55.00
2023-01-11T06:36:21.910Z,41.00
2023-01-11T06:38:50.029Z,54.00
2023-01-11T06:41:17.979Z,44.50
2023-01-11T06:43:46.878Z,66.50
2023-01-11T06:46:16.256Z,72.00
2023-01-11T06:48:45.268Z,61.00
2023-01-11T06:51:15.135Z,60.00
2023-01-11T06:53:44.641Z,61.00
2023-01-11T06:56:19.078Z,57.50
2023-01-11T06:58:47.837Z,52.50
2023-01-11T07:01:18.211Z,66.00
2023-01-11T07:03:46.648Z,59.50
2023-01-11T07:06:14.998Z,59.00
2023-01-11T07:08:43.072Z,61.00
2023-01-11T07:11:11.356Z,54.00
2023-01-11T07:13:39.639Z,53.50
2023-01-11T07:16:07.943Z,61.00
2023-01-11T07:18:37.478Z,64.50
2023-01-11T07:21:05.882Z,64.00
2023-01-11T07:23:33.928Z,53.00
2023-01-11T07:26:02.099Z,76.00
2023-01-11T07:28:31.196Z,72.00
2023-01-11T07:31:00.083Z,64.00
2023-01-11T07:33:28.571Z,73.00
2023-01-11T07:35:58.372Z,73.00
2023-01-11T07:38:29.344Z,61.50
2023-01-11T07:40:57.468Z,52.00
2023-01-11T07:43:25.534Z,61.00
2023-01-11T07:45:53.857Z,59.00
2023-01-11T07:48:26.503Z,65.00
2023-01-11T07:50:55.609Z,65.00
2023-01-11T07:53:26.435Z,61.00
2023-01-11T07:55:56.255Z,58.50
2023-01-11T07:58:24.639Z,56.00
2023-01-11T08:00:52.828Z,59.00
2023-01-11T08:03:21.441Z,61.00
2023-01-11T08:05:51.526Z,63.50
2023-01-11T08:08:20.403Z,58.67
2023-01-11T08:11:08.797Z,55.50
2023-01-11T08:13:55.285Z,51.00
2023-01-11T08:16:23.599Z,50.00
2023-01-11T08:18:52.951Z,61.00
2023-01-11T08:21:22.084Z,51.00
2023-01-11T08:23:50.077Z,37.00
2023-01-11T08:26:18.286Z,44.00
2023-01-11T08:28:46.837Z,39.00
2023-01-11T08:31:15.133Z,51.00
2023-01-11T08:33:43.357Z,44.00
2023-01-11T08:36:12.825Z,50.00
2023-01-11T08:38:40.976Z,42.00
2023-01-11T08:41:11.884Z,48.00
2023-01-11T08:46:10.005Z,61.00
2023-01-11T08:51:42.329Z,51.50
2023-01-11T08:54:13.001Z,56.00
2023-01-11T08:56:41.003Z,56.00
2023-01-11T08:59:10.788Z,27.00
2023-01-11T09:01:39.195Z,42.50
2023-01-11T09:04:19.342Z,39.50
2023-01-11T09:06:52.528Z,53.50
2023-01-11T09:09:20.624Z,34.50
2023-01-11T09:11:54.610Z,42.33
2023-01-11T09:14:24.679Z,50.00
2023-01-11T09:16:54.418Z,57.00
2023-01-11T09:19:22.900Z,41.00
2023-01-11T09:21:52.132Z,37.00
2023-01-11T09:24:21.118Z,46.00
2023-01-11T09:26:49.426Z,49.00
2023-01-11T09:29:18.389Z,44.50
2023-01-11T09:31:46.541Z,36.00
2023-01-11T09:34:14.777Z,38.00
2023-01-11T09:36:44.395Z,47.50
2023-01-11T09:39:15.762Z,36.50
2023-01-11T09:42:05.770Z,31.50
2023-01-11T09:44:42.130Z,38.50
2023-01-11T09:47:32.425Z,33.00
2023-01-11T09:50:13.280Z,28.00
2023-01-11T09:52:46.070Z,31.00
2023-01-11T09:55:20.214Z,35.00
2023-01-11T09:58:02.503Z,33.00
2023-01-11T10:00:50.891Z,32.00
2023-01-11T10:03:28.247Z,34.00
2023-01-11T10:06:15.052Z,35.00
2023-01-11T10:18:39.850Z,29.00
2023-01-11T10:19:18.511Z,32.00
2023-01-11T10:21:55.391Z,33.00
2023-01-11T10:24:26.276Z,34.50
2023-01-11T10:27:02.249Z,27.50
2023-01-11T10:30:07.398Z,31.00
2023-01-11T10:32:47.649Z,33.00
2023-01-11T10:35:45.955Z,19.50
2023-01-11T10:38:42.872Z,31.00
2023-01-11T10:41:27.234Z,31.00
2023-01-11T10:44:24.582Z,30.00
2023-01-11T10:46:54.502Z,36.00
2023-01-11T10:49:47.919Z,27.00
2023-01-11T10:52:33.946Z,24.00
2023-01-11T10:55:24.964Z,26.00
2023-01-11T10:58:12.634Z,26.00
2023-01-11T11:00:53.883Z,25.00
2023-01-11T11:03:43.080Z,22.00
2023-01-11T11:06:28.369Z,21.50
2023-01-11T11:09:02.376Z,33.00
2023-01-11T11:11:36.170Z,28.50
2023-01-11T11:14:13.099Z,38.00
2023-01-11T11:16:44.200Z,27.00
2023-01-11T11:19:19.183Z,32.00
2023-01-11T11:21:49.755Z,19.00
2023-01-11T11:24:27.633Z,23.00
2023-01-11T11:27:03.706Z,21.00
2023-01-11T11:29:32.150Z,21.50
2023-01-11T11:32:01.563Z,16.00
2023-01-11T11:34:31.222Z,25.00
2023-01-11T11:37:00.666Z,23.00
2023-01-11T11:42:07.380Z,18.50
2023-01-11T11:44:35.701Z,19.00
2023-01-11T11:47:15.616Z,22.50
2023-01-11T11:49:44.390Z,23.00
2023-01-11T11:52:17.887Z,20.00
2023-01-11T11:54:53.494Z,17.00
2023-01-11T11:57:28.210Z,21.00
2023-01-11T12:00:09.169Z,22.00
2023-01-11T12:02:48.978Z,32.00
2023-01-11T12:05:20.652Z,25.67
2023-01-11T12:07:55.579Z,25.00
2023-01-11T12:10:30.409Z,21.00
2023-01-11T12:13:04.336Z,21.50
2023-01-11T12:15:37.125Z,27.00
2023-01-11T12:18:25.598Z,25.00
2023-01-11T12:20:56.320Z,29.00
2023-01-11T12:23:31.704Z,32.00
2023-01-11T12:26:18.872Z,28.00
2023-01-11T12:28:59.483Z,32.00
2023-01-11T12:31:40.706Z,33.00
2023-01-11T12:34:15.397Z,27.00
2023-01-11T12:36:49.762Z,30.00
2023-01-11T12:39:56.020Z,26.00
2023-01-11T12:42:57.505Z,26.00
2023-01-11T12:46:11.070Z,27.67
2023-01-11T12:49:13.453Z,28.00
2023-01-11T12:52:10.132Z,32.00
2023-01-11T12:55:31.713Z,31.00
2023-01-11T12:58:14.410Z,32.50
2023-01-11T13:00:59.338Z,30.00
2023-01-11T13:04:14.544Z,27.00
2023-01-11T13:07:36.265Z,30.50
2023-01-11T13:11:01.385Z,21.50
2023-01-11T13:14:30.813Z,25.00
2023-01-11T13:17:17.273Z,16.00
2023-01-11T13:20:02.232Z,20.00
2023-01-11T13:22:37.126Z,19.00
2023-01-11T13:25:40.892Z,20.00
2023-01-11T13:28:36.158Z,19.00
2023-01-11T13:31:07.593Z,21.00
2023-01-11T13:33:40.720Z,19.50
2023-01-11T13:36:33.584Z,20.00
2023-01-11T13:39:21.012Z,20.50
2023-01-11T13:44:37.108Z,20.00
2023-01-11T13:47:08.415Z,20.50
2023-01-11T13:50:02.777Z,16.00
2023-01-11T13:53:10.159Z,19.50
2023-01-11T13:55:53.381Z,12.00
2023-01-11T13:58:30.315Z,12.00
2023-01-11T14:01:17.575Z,16.00
2023-01-11T14:04:00.124Z,12.00
2023-01-11T14:06:37.528Z,12.00
2023-01-11T14:09:24.128Z,13.00
2023-01-11T14:12:01.176Z,13.00
2023-01-11T14:14:54.306Z,14.00
2023-01-11T14:17:43.030Z,15.00
2023-01-11T14:20:35.628Z,12.50
2023-01-11T14:23:14.165Z,11.00
2023-01-11T14:26:05.743Z,12.00
2023-01-11T14:29:24.309Z,12.00
2023-01-11T14:32:21.348Z,15.00
2023-01-11T14:35:17.177Z,17.00
2023-01-11T14:38:29.713Z,20.00
2023-01-11T14:41:06.825Z,26.00
2023-01-11T14:43:56.739Z,24.00
2023-01-11T14:46:37.096Z,29.00
2023-01-11T14:49:10.800Z,38.00
2023-01-11T14:51:54.423Z,32.00
2023-01-11T14:54:53.271Z,44.00
2023-01-11T14:57:41.021Z,38.50
2023-01-11T15:00:27.454Z,52.50
2023-01-11T15:03:01.552Z,51.50
2023-01-11T15:05:30.011Z,53.00
2023-01-11T15:08:28.555Z,48.00
2023-01-11T15:11:41.995Z,55.00
2023-01-11T15:14:28.840Z,57.00
2023-01-11T15:17:20.046Z,59.50
2023-01-11T15:19:51.461Z,62.00
2023-01-11T15:22:30.761Z,63.00
2023-01-11T15:25:20.028Z,62.00
2023-01-11T15:27:48.613Z,62.50
2023-01-11T15:30:31.857Z,64.00
2023-01-11T15:33:18.871Z,67.00
2023-01-11T15:35:56.239Z,67.00
2023-01-11T15:38:28.563Z,69.50
2023-01-11T15:41:18.324Z,68.00
2023-01-11T15:44:01.012Z,64.00
2023-01-11T15:47:06.448Z,71.50
2023-01-11T15:52:13.246Z,71.33
2023-01-11T15:55:06.224Z,77.50
2023-01-11T15:58:29.901Z,68.00
2023-01-11T16:01:28.697Z,75.00
2023-01-11T16:04:15.895Z,66.00
2023-01-11T16:06:43.928Z,75.00
2023-01-11T16:09:42.168Z,79.00
2023-01-11T16:12:22.289Z,80.50
2023-01-11T16:15:09.411Z,78.50
2023-01-11T16:17:41.882Z,81.00
2023-01-11T16:20:19.923Z,83.00
2023-01-11T16:22:53.140Z,71.00
2023-01-11T16:25:25.480Z,77.00
2023-01-11T16:27:55.783Z,82.00
2023-01-11T16:30:25.635Z,88.00
2023-01-11T16:32:54.017Z,85.33
2023-01-11T16:35:25.255Z,82.00
2023-01-11T16:37:58.642Z,80.00
2023-01-11T16:40:32.494Z,86.00
2023-01-11T16:43:22.035Z,79.00
2023-01-11T16:45:54.320Z,74.00
2023-01-11T16:48:24.882Z,74.00
2023-01-11T16:51:02.429Z,73.00
2023-01-11T16:53:33.810Z,77.00
2023-01-11T16:56:16.231Z,78.00
2023-01-11T16:59:02.217Z,70.00
2023-01-11T17:01:50.023Z,86.00
2023-01-11T17:04:31.642Z,78.00
2023-01-11T17:07:20.813Z,79.50
2023-01-11T17:09:49.517Z,77.50
2023-01-11T17:12:26.359Z,73.50
2023-01-11T17:15:13.739Z,88.00
2023-01-11T17:17:41.862Z,81.00
2023-01-11T17:20:21.939Z,76.00
2023-01-11T17:22:53.946Z,75.00
2023-01-11T17:25:41.042Z,76.00
2023-01-11T17:28:19.558Z,86.50
2023-01-11T17:30:50.632Z,83.50
2023-01-11T17:33:27.873Z,84.50
2023-01-11T17:35:56.525Z,83.00
2023-01-11T17:38:26.736Z,84.50
2023-01-11T17:40:56.827Z,84.50
2023-01-11T17:43:46.054Z,82.00
2023-01-11T17:46:22.043Z,84.00
2023-01-11T17:48:56.129Z,81.50
2023-01-11T17:51:33.551Z,74.00
2023-01-11T17:54:01.640Z,72.00
2023-01-11T17:56:32.768Z,62.00
2023-01-11T17:59:18.804Z,54.00
2023-01-11T18:01:49.518Z,53.00
2023-01-11T18:04:20.710Z,50.00
2023-01-11T18:06:52.921Z,57.00
2023-01-11T18:09:30.559Z,63.00
2023-01-11T18:12:23.061Z,62.00
2023-01-11T18:14:53.679Z,52.00
2023-01-11T18:17:36.852Z,52.00
2023-01-11T18:20:29.441Z,49.00
2023-01-11T18:23:15.267Z,49.00
2023-01-11T18:25:46.142Z,49.00
2023-01-11T18:28:22.057Z,50.50
2023-01-11T18:30:54.309Z,57.00
2023-01-11T18:33:25.826Z,43.00
2023-01-11T18:38:30.174Z,53.00
2023-01-11T18:41:20.609Z,56.00
2023-01-11T18:43:48.791Z,54.00
2023-01-11T18:46:16.835Z,59.00
2023-01-11T18:48:45.101Z,54.00
2023-01-11T18:51:35.357Z,36.33
2023-01-11T18:54:03.544Z,42.67
2023-01-11T18:56:31.486Z,54.00
2023-01-11T18:58:59.356Z,56.50
2023-01-11T19:01:33.124Z,27.00
2023-01-11T19:04:01.544Z,38.50
2023-01-11T19:06:29.365Z,57.00
2023-01-11T19:08:57.476Z,47.00
2023-01-11T19:11:27.196Z,51.50
2023-01-11T19:13:55.430Z,59.00
2023-01-11T19:16:23.903Z,63.00
2023-01-11T19:18:55.497Z,58.00
2023-01-11T19:21:23.555Z,52.00
2023-01-11T19:23:51.789Z,63.00
2023-01-11T19:26:19.763Z,53.00
2023-01-11T19:28:47.746Z,51.00
2023-01-11T19:31:15.726Z,40.00
2023-01-11T19:33:43.769Z,53.00
2023-01-11T19:36:11.693Z,51.00
2023-01-11T19:38:39.911Z,50.50
2023-01-11T19:41:17.287Z,56.00
2023-01-11T19:43:45.509Z,55.00
2023-01-11T19:46:22.444Z,49.00
2023-01-11T19:48:59.585Z,55.50
2023-01-11T19:51:27.514Z,56.00
2023-01-11T19:54:01.698Z,40.00
2023-01-11T19:56:29.606Z,35.50
2023-01-11T19:58:57.576Z,36.50
2023-01-11T20:01:26.331Z,38.00
2023-01-11T20:03:54.388Z,48.00
2023-01-11T20:06:22.362Z,46.00
2023-01-11T20:08:51.331Z,48.00
2023-01-11T20:11:19.815Z,18.00
2023-01-11T20:13:50.960Z,20.00
2023-01-11T20:16:24.193Z,25.50
2023-01-11T20:18:57.574Z,21.00
2023-01-11T20:21:29.014Z,24.50
2023-01-11T20:24:01.861Z,21.00
2023-01-11T20:26:31.572Z,27.00
2023-01-11T20:29:00.844Z,22.00
2023-01-11T20:31:31.754Z,23.00
2023-01-11T20:34:01.507Z,27.50
2023-01-11T20:36:29.837Z,30.00
2023-01-11T20:39:03.750Z,31.50
2023-01-11T20:41:49.457Z,28.00
2023-01-11T20:44:20.442Z,37.00
2023-01-11T20:46:48.623Z,27.00
2023-01-11T20:49:17.874Z,36.00
2023-01-11T20:51:46.882Z,29.00
2023-01-11T20:54:16.191Z,33.00
2023-01-11T20:56:47.025Z,34.00
2023-01-11T20:59:17.520Z,32.50
2023-01-11T21:01:47.574Z,115.00
2023-01-11T21:04:17.320Z,91.00
2023-01-11T21:06:48.516Z,37.00
2023-01-11T21:09:18.088Z,30.00
2023-01-11T21:11:53.162Z,28.00
2023-01-11T21:14:24.196Z,23.50
2023-01-11T21:16:55.249Z,20.00
2023-01-11T21:19:23.514Z,24.33
2023-01-11T21:21:51.650Z,26.00
2023-01-11T21:24:19.795Z,18.50
2023-01-11T21:26:48.492Z,23.00
2023-01-11T21:29:16.513Z,28.00
2023-01-11T21:34:14.405Z,25.00
2023-01-11T21:36:43.368Z,24.00
2023-01-11T21:39:14.307Z,16.33
2023-01-11T21:41:55.556Z,20.00
2023-01-11T21:44:30.716Z,23.00
2023-01-11T21:47:03.764Z,21.00
2023-01-11T21:49:32.772Z,19.50
2023-01-11T21:52:01.087Z,21.00
2023-01-11T21:54:29.209Z,24.00
2023-01-11T21:56:57.385Z,23.50
2023-01-11T21:59:25.881Z,20.00
2023-01-11T22:01:53.850Z,18.00
2023-01-11T22:04:22.943Z,15.50
2023-01-11T22:06:54.361Z,14.00
2023-01-11T22:09:24.336Z,16.00
2023-01-11T22:11:52.327Z,20.00
2023-01-11T22:14:20.430Z,19.00
2023-01-11T22:16:48.379Z,17.00
2023-01-11T22:19:16.660Z,19.67
2023-01-11T22:24:13.284Z,13.00
2023-01-11T22:26:42.433Z,14.00
2023-01-11T22:29:15.058Z,16.50
2023-01-11T22:31:45.521Z,11.00
2023-01-11T22:34:15.368Z,11.00
2023-01-11T22:36:44.589Z,11.00
2023-01-11T22:39:14.894Z,8.00
2023-01-11T22:41:45.665Z,11.50
2023-01-11T22:44:14.627Z,10.00
2023-01-11T22:46:43.993Z,7.00
2023-01-11T22:49:12.053Z,11.00
2023-01-11T22:51:41.686Z,10.00
2023-01-11T22:54:10.856Z,12.00
2023-01-11T22:56:39.417Z,9.00
2023-01-11T22:59:07.439Z,10.00
2023-01-11T23:01:41.078Z,10.50
2023-01-11T23:04:13.027Z,15.00
2023-01-11T23:06:42.553Z,15.00
2023-01-11T23:09:15.961Z,10.50
2023-01-11T23:12:04.342Z,11.00
2023-01-11T23:14:33.557Z,7.00
2023-01-11T23:17:07.356Z,10.50
2023-01-11T23:19:40.819Z,13.00
2023-01-11T23:22:10.437Z,10.00
2023-01-11T23:24:39.053Z,14.00
2023-01-11T23:27:07.226Z,15.00
2023-01-11T23:29:35.728Z,11.00
2023-01-11T23:32:03.965Z,14.50
2023-01-11T23:34:32.289Z,10.00
2023-01-11T23:37:00.594Z,14.00
2023-01-11T23:39:30.250Z,15.67
2023-01-11T23:42:19.127Z,11.50
2023-01-11T23:44:47.302Z,15.00
2023-01-11T23:47:21.651Z,10.33
2023-01-11T23:49:52.233Z,15.00
2023-01-11T23:52:26.179Z,12.00
2023-01-11T23:54:55.181Z,15.00
2023-01-11T23:57:25.203Z,9.00
2023-01-11T23:59:53.402Z,14.50
